createdAt,value
2022-11-13T00:09:17.404Z,3.221
2022-11-13T00:25:00.258Z,3.221
2022-11-13T00:40:42.969Z,3.223
2022-11-13T00:56:25.305Z,3.221
2022-11-13T01:12:08.173Z,3.221
2022-11-13T01:27:50.528Z,3.22
2022-11-13T01:43:33.046Z,3.22
2022-11-13T01:59:15.586Z,3.221
2022-11-13T02:14:58.242Z,3.22
2022-11-13T02:30:40.699Z,3.22
2022-11-13T02:46:23.013Z,3.22
2022-11-13T03:02:05.143Z,3.213
2022-11-13T03:17:47.943Z,3.22
2022-11-13T03:33:30.638Z,3.22
2022-11-13T03:49:13.679Z,3.213
2022-11-13T04:04:56.722Z,3.213
2022-11-13T04:20:39.783Z,3.212
2022-11-13T04:36:22.666Z,3.212
2022-11-13T04:52:05.637Z,3.213
2022-11-13T05:07:48.301Z,3.213
2022-11-13T05:23:31.188Z,3.212
2022-11-13T05:39:14.103Z,3.213
2022-11-13T05:54:56.571Z,3.213
2022-11-13T06:10:39.410Z,3.212
2022-11-13T06:26:21.480Z,3.213
2022-11-13T06:42:03.904Z,3.212
2022-11-13T06:57:46.128Z,3.213
2022-11-13T07:13:28.760Z,3.212
2022-11-13T07:29:10.947Z,3.212
2022-11-13T07:44:53.765Z,3.218
2022-11-13T08:00:36.611Z,3.212
2022-11-13T08:16:19.665Z,3.212
2022-11-13T08:32:02.204Z,3.212
2022-11-13T08:47:44.297Z,3.212
2022-11-13T09:03:27.171Z,3.21
2022-11-13T09:19:10.202Z,3.21
2022-11-13T09:34:53.042Z,3.21
2022-11-13T09:50:35.344Z,3.21
2022-11-13T10:06:17.620Z,3.212
2022-11-13T10:21:59.802Z,3.212
2022-11-13T10:37:42.048Z,3.21
2022-11-13T10:53:24.729Z,3.221
2022-11-13T11:09:06.690Z,3.224
2022-11-13T11:24:49.097Z,3.228
2022-11-13T11:40:31.778Z,3.224
2022-11-13T11:56:13.814Z,3.224
2022-11-13T12:11:56.743Z,3.216
2022-11-13T12:27:39.343Z,3.216
2022-11-13T12:43:21.944Z,3.25
2022-11-13T12:59:04.552Z,3.257
2022-11-13T13:14:46.775Z,3.254
2022-11-13T13:30:28.817Z,3.253
2022-11-13T13:46:11.154Z,3.271
2022-11-13T14:01:53.690Z,3.259
2022-11-13T14:17:36.264Z,3.252
2022-11-13T14:33:18.433Z,3.246
2022-11-13T14:49:01.337Z,3.242
2022-11-13T15:04:43.909Z,3.239
2022-11-13T15:20:26.424Z,3.236
2022-11-13T15:21:13.699Z,3.231
2022-11-13T15:36:55.975Z,3.232
2022-11-13T15:52:38.438Z,3.229
2022-11-13T16:08:20.720Z,3.227
2022-11-13T16:24:03.747Z,3.227
2022-11-13T16:39:46.045Z,3.225
2022-11-13T16:55:28.643Z,3.224
2022-11-13T17:11:11.057Z,3.224
2022-11-13T17:26:53.447Z,3.223
2022-11-13T17:42:36.207Z,3.221
2022-11-13T17:58:18.944Z,3.223
2022-11-13T18:14:01.159Z,3.221
2022-11-13T18:29:43.060Z,3.22
2022-11-13T18:45:26.217Z,3.214
2022-11-13T19:01:08.346Z,3.213
2022-11-13T19:16:51.240Z,3.22
2022-11-13T19:32:33.944Z,3.213
2022-11-13T19:48:16.937Z,3.213
2022-11-13T20:03:59.967Z,3.213
2022-11-13T20:19:42.953Z,3.213
2022-11-13T20:35:25.324Z,3.213
2022-11-13T20:51:07.568Z,3.22
2022-11-13T21:06:50.825Z,3.213
2022-11-13T21:22:33.798Z,3.213
2022-11-13T21:38:16.852Z,3.218
2022-11-13T21:53:59.912Z,3.213
2022-11-13T22:09:41.905Z,3.212
2022-11-13T22:25:24.652Z,3.218
2022-11-13T22:41:06.715Z,3.22
2022-11-13T22:56:49.835Z,3.22
2022-11-13T23:12:32.494Z,3.218
2022-11-13T23:28:15.533Z,3.218
2022-11-13T23:43:57.980Z,3.218
2022-11-13T23:59:40.449Z,3.218
